createdAt,value
2018-08-09T00:01:10.536Z,21.33
2018-08-09T00:03:39.093Z,20.92
2018-08-09T00:06:07.612Z,20.30
2018-08-09T00:08:36.020Z,20.68
2018-08-09T00:11:04.879Z,20.85
2018-08-09T00:13:33.275Z,20.84
2018-08-09T00:16:01.727Z,20.96
2018-08-09T00:18:30.348Z,20.94
2018-08-09T00:20:58.844Z,20.96
2018-08-09T00:23:27.249Z,20.74
2018-08-09T00:25:55.686Z,20.76
2018-08-09T00:28:24.087Z,20.75
2018-08-09T00:30:52.477Z,20.55
2018-08-09T00:33:20.898Z,20.43
2018-08-09T00:35:49.278Z,20.88
2018-08-09T00:38:17.691Z,20.58
2018-08-09T00:40:46.283Z,20.33
2018-08-09T00:43:14.695Z,20.83
2018-08-09T00:45:43.087Z,20.85
2018-08-09T00:48:11.600Z,20.67
2018-08-09T00:50:40.079Z,20.65
2018-08-09T00:53:08.626Z,20.75
2018-08-09T00:58:15.378Z,20.77
2018-08-09T01:00:43.899Z,20.53
2018-08-09T01:03:12.295Z,20.66
2018-08-09T01:05:40.778Z,20.90
2018-08-09T01:08:09.446Z,20.69
2018-08-09T01:10:37.855Z,20.46
2018-08-09T01:13:06.706Z,20.49
2018-08-09T01:15:35.249Z,20.52
2018-08-09T01:18:03.711Z,20.59
2018-08-09T01:20:32.111Z,20.47
2018-08-09T01:23:00.723Z,20.57
2018-08-09T01:25:29.314Z,20.68
2018-08-09T01:27:57.719Z,20.37
2018-08-09T01:30:26.534Z,20.24
2018-08-09T01:32:55.024Z,20.08
2018-08-09T01:35:23.463Z,20.31
2018-08-09T01:37:52.153Z,20.36
2018-08-09T01:40:20.540Z,20.42
2018-08-09T01:43:00.343Z,20.43
2018-08-09T01:45:28.800Z,20.42
2018-08-09T01:47:57.251Z,20.20
2018-08-09T01:50:25.836Z,20.24
2018-08-09T01:52:54.247Z,20.32
2018-08-09T01:55:22.639Z,20.62
2018-08-09T01:57:51.243Z,20.46
2018-08-09T02:00:19.667Z,20.39
2018-08-09T02:02:48.167Z,20.68
2018-08-09T02:05:16.891Z,20.82
2018-08-09T02:07:45.350Z,20.54
2018-08-09T02:10:13.759Z,20.38
2018-08-09T02:12:42.253Z,20.39
2018-08-09T02:15:10.639Z,20.24
2018-08-09T02:17:39.098Z,20.13
2018-08-09T02:20:07.755Z,20.19
2018-08-09T02:22:36.171Z,19.97
2018-08-09T02:25:05.075Z,19.73
2018-08-09T02:27:33.801Z,19.20
2018-08-09T02:30:02.176Z,19.43
2018-08-09T02:32:30.551Z,19.68
2018-08-09T02:34:59.098Z,19.58
2018-08-09T02:37:27.484Z,19.68
2018-08-09T02:39:56.067Z,19.96
2018-08-09T02:42:24.591Z,19.93
2018-08-09T02:44:52.983Z,19.87
2018-08-09T02:47:21.378Z,19.93
2018-08-09T02:49:49.875Z,19.76
2018-08-09T02:52:18.259Z,19.90
2018-08-09T02:54:46.714Z,19.92
2018-08-09T02:57:15.375Z,19.65
2018-08-09T02:59:43.795Z,19.47
2018-08-09T03:02:12.219Z,19.41
2018-08-09T03:04:40.616Z,19.26
2018-08-09T03:07:09.423Z,19.10
2018-08-09T03:09:37.912Z,18.81
2018-08-09T03:12:06.543Z,18.72
2018-08-09T03:14:34.954Z,18.68
2018-08-09T03:17:03.403Z,18.72
2018-08-09T03:19:31.855Z,18.94
2018-08-09T03:22:00.336Z,19.44
2018-08-09T03:24:28.960Z,19.22
2018-08-09T03:26:57.607Z,19.25
2018-08-09T03:29:26.069Z,19.46
2018-08-09T03:31:54.539Z,19.37
2018-08-09T03:34:23.052Z,19.15
2018-08-09T03:36:51.522Z,18.86
2018-08-09T03:39:19.907Z,19.17
2018-08-09T03:41:48.443Z,19.30
2018-08-09T03:44:16.931Z,19.31
2018-08-09T03:46:45.411Z,19.37
2018-08-09T03:49:14.163Z,19.23
2018-08-09T03:51:42.571Z,18.84
2018-08-09T03:54:11.079Z,18.74
2018-08-09T03:56:39.754Z,18.92
2018-08-09T03:59:08.359Z,19.14
2018-08-09T04:01:36.855Z,19.43
2018-08-09T04:04:05.391Z,19.41
2018-08-09T04:06:33.860Z,19.30
2018-08-09T04:09:02.323Z,19.32
2018-08-09T04:11:31.016Z,19.15
2018-08-09T04:13:59.547Z,19.02
2018-08-09T04:16:27.931Z,19.07
2018-08-09T04:18:56.435Z,19.35
2018-08-09T04:21:24.814Z,19.35
2018-08-09T04:23:53.323Z,19.51
2018-08-09T04:26:22.031Z,19.39
2018-08-09T04:28:50.524Z,19.32
2018-08-09T04:31:19.117Z,19.40
2018-08-09T04:33:48.091Z,19.33
2018-08-09T04:36:16.643Z,19.40
2018-08-09T04:38:45.115Z,19.00
2018-08-09T04:41:13.631Z,19.06
2018-08-09T04:43:42.080Z,19.29
2018-08-09T04:46:10.607Z,19.43
2018-08-09T04:48:39.183Z,19.56
2018-08-09T04:51:07.655Z,19.85
2018-08-09T04:53:36.060Z,19.80
2018-08-09T04:56:04.872Z,19.85
2018-08-09T04:58:33.339Z,19.64
2018-08-09T05:01:01.900Z,19.83
2018-08-09T05:03:31.039Z,20.07
2018-08-09T05:05:59.438Z,20.20
2018-08-09T05:08:27.875Z,19.94
2018-08-09T05:10:56.603Z,20.20
2018-08-09T05:13:25.155Z,20.56
2018-08-09T05:15:53.626Z,20.98
2018-08-09T05:18:22.511Z,21.47
2018-08-09T05:20:51.004Z,21.70
2018-08-09T05:23:19.460Z,21.36
2018-08-09T05:25:48.187Z,21.47
2018-08-09T05:28:16.567Z,21.74
2018-08-09T05:30:45.007Z,21.91
2018-08-09T05:33:13.516Z,21.96
2018-08-09T05:35:41.975Z,21.96
2018-08-09T05:38:10.475Z,21.82
2018-08-09T05:40:39.358Z,21.86
2018-08-09T05:43:07.771Z,21.87
2018-08-09T05:45:36.439Z,21.75
2018-08-09T05:48:05.251Z,21.71
2018-08-09T05:50:33.764Z,21.63
2018-08-09T05:53:02.334Z,21.71
2018-08-09T05:55:30.904Z,21.68
2018-08-09T05:57:59.486Z,21.36
2018-08-09T06:00:28.020Z,21.48
2018-08-09T06:02:56.617Z,21.38
2018-08-09T06:05:25.032Z,21.65
2018-08-09T06:07:53.539Z,21.71
2018-08-09T06:10:22.195Z,22.09
2018-08-09T06:12:50.626Z,22.48
2018-08-09T06:15:19.126Z,22.45
2018-08-09T06:17:47.665Z,22.44
2018-08-09T06:20:16.058Z,22.64
2018-08-09T06:22:44.671Z,22.69
2018-08-09T06:25:13.122Z,22.61
2018-08-09T06:27:41.611Z,22.54
2018-08-09T06:30:11.155Z,23.00
2018-08-09T06:32:40.426Z,23.25
2018-08-09T06:35:10.492Z,23.23
2018-08-09T06:37:39.187Z,23.34
2018-08-09T06:40:11.211Z,23.24
2018-08-09T06:42:40.155Z,23.34
2018-08-09T06:45:08.654Z,23.17
2018-08-09T06:47:37.195Z,23.26
2018-08-09T06:50:06.991Z,23.46
2018-08-09T06:52:35.375Z,23.71
2018-08-09T06:55:04.295Z,23.85
2018-08-09T06:57:32.768Z,23.79
2018-08-09T07:00:01.223Z,23.80
2018-08-09T07:02:29.728Z,23.73
2018-08-09T07:04:58.238Z,23.90
2018-08-09T07:07:26.717Z,24.24
2018-08-09T07:09:55.368Z,24.32
2018-08-09T07:12:23.791Z,24.61
2018-08-09T07:14:52.312Z,24.55
2018-08-09T07:17:21.014Z,24.81
2018-08-09T07:19:49.475Z,24.73
2018-08-09T07:22:17.868Z,25.05
2018-08-09T07:24:46.328Z,24.95
2018-08-09T07:27:14.763Z,25.11
2018-08-09T07:29:43.255Z,25.03
2018-08-09T07:32:11.760Z,24.99
2018-08-09T07:34:40.279Z,25.32
2018-08-09T07:37:08.851Z,25.37
2018-08-09T07:39:37.706Z,25.20
2018-08-09T07:42:06.276Z,25.40
2018-08-09T07:44:34.747Z,25.03
2018-08-09T07:47:03.275Z,25.20
2018-08-09T07:49:31.704Z,25.59
2018-08-09T07:52:00.255Z,25.75
2018-08-09T07:54:29.187Z,25.67
2018-08-09T07:56:57.816Z,25.71
2018-08-09T07:59:26.287Z,25.82
2018-08-09T08:01:54.795Z,25.62
2018-08-09T08:04:23.191Z,25.72
2018-08-09T08:06:51.710Z,25.81
2018-08-09T08:09:20.136Z,25.87
2018-08-09T08:11:48.514Z,25.90
2018-08-09T08:14:16.967Z,25.92
2018-08-09T08:16:45.663Z,25.98
2018-08-09T08:19:14.175Z,26.27
2018-08-09T08:21:42.631Z,25.96
2018-08-09T08:24:11.415Z,26.17
2018-08-09T08:26:39.859Z,26.24
2018-08-09T08:29:08.258Z,26.35
2018-08-09T08:31:42.450Z,26.56
2018-08-09T08:34:10.867Z,26.82
2018-08-09T08:36:39.331Z,26.69
2018-08-09T08:39:09.609Z,26.81
2018-08-09T08:41:38.631Z,27.04
2018-08-09T08:44:07.328Z,26.84
2018-08-09T08:46:35.799Z,26.77
2018-08-09T08:49:04.235Z,26.61
2018-08-09T08:51:32.759Z,26.70
2018-08-09T08:54:01.184Z,26.93
2018-08-09T08:56:29.684Z,26.99
2018-08-09T08:58:58.168Z,27.24
2018-08-09T09:01:26.830Z,27.39
2018-08-09T09:03:55.303Z,27.70
2018-08-09T09:06:23.735Z,28.03
2018-08-09T09:08:52.429Z,28.37
2018-08-09T09:11:20.860Z,28.57
2018-08-09T09:13:50.539Z,28.68
2018-08-09T09:16:19.007Z,28.80
2018-08-09T09:18:47.419Z,28.94
2018-08-09T09:21:15.979Z,28.99
2018-08-09T09:23:44.543Z,29.09
2018-08-09T09:26:13.028Z,29.25
2018-08-09T09:28:41.536Z,29.32
2018-08-09T09:31:10.162Z,29.40
2018-08-09T09:33:38.574Z,29.50
2018-08-09T09:36:07.134Z,29.59
2018-08-09T09:38:35.715Z,29.75
2018-08-09T09:41:05.518Z,29.78
2018-08-09T09:43:34.759Z,29.84
2018-08-09T09:46:03.251Z,29.40
2018-08-09T09:48:31.736Z,29.32
2018-08-09T09:51:00.610Z,29.72
2018-08-09T09:53:29.004Z,29.86
2018-08-09T09:55:57.557Z,30.17
2018-08-09T09:58:26.074Z,30.29
2018-08-09T10:00:59.775Z,30.34
2018-08-09T10:03:28.216Z,30.91
2018-08-09T10:05:56.587Z,30.76
2018-08-09T10:08:25.111Z,30.73
2018-08-09T10:10:53.615Z,30.94
2018-08-09T10:13:22.079Z,31.01
2018-08-09T10:15:50.491Z,31.27
2018-08-09T10:18:19.180Z,31.47
2018-08-09T10:20:47.684Z,31.48
2018-08-09T10:23:16.151Z,31.42
2018-08-09T10:25:44.655Z,31.45
2018-08-09T10:28:13.054Z,31.57
2018-08-09T10:30:41.490Z,31.59
2018-08-09T10:33:10.026Z,31.89
2018-08-09T10:35:38.552Z,31.54
2018-08-09T10:38:07.041Z,31.79
2018-08-09T10:40:35.593Z,31.73
2018-08-09T10:43:04.122Z,31.97
2018-08-09T10:45:32.595Z,31.53
2018-08-09T10:48:01.171Z,31.38
2018-08-09T10:50:29.601Z,31.97
2018-08-09T10:52:57.982Z,32.25
2018-08-09T10:55:26.395Z,32.44
2018-08-09T10:57:54.867Z,32.56
2018-08-09T11:00:23.503Z,32.68
2018-08-09T11:02:52.051Z,32.67
2018-08-09T11:05:20.504Z,32.92
2018-08-09T11:07:48.907Z,32.47
2018-08-09T11:10:17.739Z,32.48
2018-08-09T11:12:46.107Z,32.54
2018-08-09T11:15:14.566Z,32.65
2018-08-09T11:17:43.235Z,33.05
2018-08-09T11:20:11.971Z,33.10
2018-08-09T11:22:40.376Z,33.08
2018-08-09T11:25:09.703Z,33.06
2018-08-09T11:27:38.263Z,33.13
2018-08-09T11:30:06.868Z,32.89
2018-08-09T11:32:36.215Z,33.13
2018-08-09T11:35:05.177Z,32.86
2018-08-09T11:37:33.811Z,32.95
2018-08-09T11:40:02.527Z,33.15
2018-08-09T11:42:31.386Z,33.35
2018-08-09T11:44:59.868Z,33.37
2018-08-09T11:47:29.248Z,33.26
2018-08-09T11:49:57.787Z,33.02
2018-08-09T11:52:26.271Z,33.21
2018-08-09T11:54:54.976Z,32.76
2018-08-09T11:57:23.426Z,32.62
2018-08-09T11:59:52.075Z,32.68
2018-08-09T12:02:20.587Z,32.63
2018-08-09T12:04:49.171Z,32.55
2018-08-09T12:07:17.622Z,32.79
2018-08-09T12:09:46.308Z,32.40
2018-08-09T12:12:14.855Z,31.96
2018-08-09T12:14:43.434Z,31.92
2018-08-09T12:17:12.033Z,31.93
2018-08-09T12:19:40.524Z,31.82
2018-08-09T12:22:08.919Z,31.89
2018-08-09T12:24:37.375Z,31.82
2018-08-09T12:27:05.959Z,31.77
2018-08-09T12:29:34.375Z,31.73
2018-08-09T12:32:02.904Z,31.34
2018-08-09T12:34:31.384Z,31.00
2018-08-09T12:37:00.324Z,28.42
2018-08-09T12:39:29.028Z,27.80
2018-08-09T12:41:57.703Z,26.20
2018-08-09T12:44:26.375Z,25.44
2018-08-09T12:46:54.880Z,24.43
2018-08-09T12:49:23.371Z,24.19
2018-08-09T12:51:51.996Z,24.39
2018-08-09T12:54:20.487Z,24.00
2018-08-09T12:56:48.950Z,23.70
2018-08-09T12:59:21.403Z,23.43
2018-08-09T13:01:49.928Z,23.61
2018-08-09T13:04:18.410Z,23.04
2018-08-09T13:06:46.863Z,23.24
2018-08-09T13:09:15.290Z,22.96
2018-08-09T13:11:43.847Z,22.85
2018-08-09T13:14:12.639Z,22.63
2018-08-09T13:16:41.035Z,23.24
2018-08-09T13:19:09.606Z,23.03
2018-08-09T13:21:38.374Z,23.14
2018-08-09T13:24:06.808Z,23.03
2018-08-09T13:26:35.427Z,22.91
2018-08-09T13:29:04.667Z,22.92
2018-08-09T13:31:33.154Z,23.07
2018-08-09T13:34:02.019Z,23.16
2018-08-09T13:36:30.848Z,22.94
2018-08-09T13:38:59.410Z,22.99
2018-08-09T13:41:27.975Z,22.94
2018-08-09T13:43:56.851Z,23.06
2018-08-09T13:46:25.462Z,23.04
2018-08-09T13:48:54.027Z,23.18
2018-08-09T13:51:22.806Z,23.45
2018-08-09T13:53:51.403Z,23.10
2018-08-09T13:56:19.895Z,22.92
2018-08-09T13:58:49.331Z,23.25
2018-08-09T14:01:17.787Z,23.10
2018-08-09T14:03:46.259Z,23.18
2018-08-09T14:06:14.842Z,23.43
2018-08-09T14:08:44.125Z,23.38
2018-08-09T14:11:14.335Z,23.87
2018-08-09T14:13:44.916Z,23.70
2018-08-09T14:16:13.961Z,23.68
2018-08-09T14:18:42.547Z,23.97
2018-08-09T14:21:11.086Z,24.10
2018-08-09T14:23:40.483Z,24.20
2018-08-09T14:26:08.998Z,23.80
2018-08-09T14:28:37.692Z,23.56
2018-08-09T14:31:06.229Z,23.94
2018-08-09T14:33:34.973Z,23.86
2018-08-09T14:36:03.595Z,24.12
2018-08-09T14:38:32.133Z,23.84
2018-08-09T14:41:00.736Z,23.90
2018-08-09T14:43:29.251Z,23.74
2018-08-09T14:45:57.675Z,23.81
2018-08-09T14:48:26.162Z,23.69
2018-08-09T14:50:54.616Z,23.88
2018-08-09T14:53:23.309Z,23.89
2018-08-09T14:55:51.783Z,23.57
2018-08-09T14:58:20.218Z,23.69
2018-08-09T15:00:48.663Z,23.47
2018-08-09T15:03:17.219Z,23.44
2018-08-09T15:05:45.804Z,23.43
2018-08-09T15:08:14.439Z,23.40
2018-08-09T15:10:42.845Z,23.60
2018-08-09T15:13:11.363Z,23.42
2018-08-09T15:15:40.083Z,23.64
2018-08-09T15:18:08.483Z,23.96
2018-08-09T15:20:36.951Z,23.79
2018-08-09T15:23:05.628Z,23.91
2018-08-09T15:25:34.163Z,23.93
2018-08-09T15:28:02.895Z,23.79
2018-08-09T15:30:31.376Z,23.85
2018-08-09T15:32:59.831Z,24.07
2018-08-09T15:35:28.323Z,23.93
2018-08-09T15:37:57.149Z,23.77
2018-08-09T15:40:25.587Z,23.70
2018-08-09T15:42:54.134Z,23.70
2018-08-09T15:45:22.776Z,24.13
2018-08-09T15:47:51.319Z,24.04
2018-08-09T15:50:20.547Z,24.10
2018-08-09T15:52:49.070Z,24.35
2018-08-09T15:55:18.535Z,24.35
2018-08-09T15:57:47.235Z,24.26
2018-08-09T16:00:20.015Z,24.28
2018-08-09T16:02:48.639Z,24.21
2018-08-09T16:05:17.293Z,24.44
2018-08-09T16:07:46.495Z,24.27
2018-08-09T16:10:16.092Z,24.16
2018-08-09T16:12:44.877Z,24.33
2018-08-09T16:15:18.780Z,24.38
2018-08-09T16:17:48.184Z,24.41
2018-08-09T16:20:16.936Z,24.34
2018-08-09T16:22:46.144Z,24.35
2018-08-09T16:25:15.916Z,24.63
2018-08-09T16:27:44.483Z,24.47
2018-08-09T16:30:17.213Z,24.46
2018-08-09T16:32:45.735Z,24.57
2018-08-09T16:35:14.495Z,24.43
2018-08-09T16:37:44.051Z,24.69
2018-08-09T16:40:16.181Z,24.64
2018-08-09T16:42:44.855Z,24.74
2018-08-09T16:46:16.926Z,24.74
2018-08-09T16:48:46.097Z,24.64
2018-08-09T16:51:14.737Z,24.81
2018-08-09T16:53:43.210Z,24.91
2018-08-09T16:56:12.131Z,25.22
2018-08-09T16:58:40.634Z,24.96
2018-08-09T17:01:09.219Z,25.02
2018-08-09T17:03:37.814Z,25.34
2018-08-09T17:06:06.718Z,25.16
2018-08-09T17:08:35.277Z,25.20
2018-08-09T17:11:03.944Z,25.15
2018-08-09T17:13:32.446Z,25.09
2018-08-09T17:16:01.056Z,24.95
2018-08-09T17:18:29.748Z,24.97
2018-08-09T17:20:58.317Z,24.74
2018-08-09T17:23:27.110Z,24.76
2018-08-09T17:25:55.829Z,24.61
2018-08-09T17:28:24.351Z,24.75
2018-08-09T17:30:53.231Z,24.78
2018-08-09T17:33:22.307Z,24.78
2018-08-09T17:35:51.015Z,24.87
2018-08-09T17:38:19.603Z,24.81
2018-08-09T17:40:48.260Z,25.05
2018-08-09T17:43:16.937Z,24.85
2018-08-09T17:45:45.516Z,24.89
2018-08-09T17:48:14.042Z,25.05
2018-08-09T17:50:42.812Z,24.88
2018-08-09T17:53:11.363Z,24.90
2018-08-09T17:55:39.895Z,24.85
2018-08-09T17:58:08.570Z,25.05
2018-08-09T18:00:37.286Z,24.72
2018-08-09T18:03:06.160Z,24.50
2018-08-09T18:05:34.823Z,24.47
2018-08-09T18:08:03.509Z,24.71
2018-08-09T18:10:33.748Z,24.60
2018-08-09T18:13:03.362Z,24.29
2018-08-09T18:15:32.342Z,24.41
2018-08-09T18:18:01.803Z,24.47
2018-08-09T18:20:33.498Z,24.57
2018-08-09T18:23:02.426Z,24.36
2018-08-09T18:25:31.310Z,24.44
2018-08-09T18:28:01.208Z,24.34
2018-08-09T18:30:30.090Z,24.35
2018-08-09T18:32:59.038Z,24.12
2018-08-09T18:35:28.969Z,24.19
2018-08-09T18:37:58.102Z,24.28
2018-08-09T18:40:27.998Z,24.03
2018-08-09T18:42:57.223Z,24.11
2018-08-09T18:45:32.887Z,23.99
2018-08-09T18:48:03.745Z,23.82
2018-08-09T18:50:33.177Z,23.93
2018-08-09T18:53:02.339Z,23.74
2018-08-09T18:55:31.259Z,23.61
2018-08-09T18:58:01.439Z,23.59
2018-08-09T19:00:31.045Z,23.66
2018-08-09T19:03:01.812Z,23.64
2018-08-09T19:05:31.765Z,23.51
2018-08-09T19:08:01.356Z,23.47
2018-08-09T19:10:31.616Z,23.60
2018-08-09T19:13:00.836Z,23.58
2018-08-09T19:15:29.939Z,23.62
2018-08-09T19:17:59.314Z,23.43
2018-08-09T19:20:31.698Z,23.69
2018-08-09T19:23:01.214Z,23.67
2018-08-09T19:25:31.504Z,23.69
2018-08-09T19:28:00.498Z,23.22
2018-08-09T19:30:31.118Z,23.47
2018-08-09T19:33:02.694Z,23.48
2018-08-09T19:35:32.409Z,23.47
2018-08-09T19:38:01.417Z,23.21
2018-08-09T19:40:31.060Z,23.33
2018-08-09T19:43:00.353Z,23.69
2018-08-09T19:45:29.602Z,23.67
2018-08-09T19:47:58.622Z,23.63
2018-08-09T19:50:27.940Z,23.59
2018-08-09T19:52:56.960Z,23.46
2018-08-09T19:55:27.226Z,23.28
2018-08-09T19:57:57.354Z,23.28
2018-08-09T20:00:29.346Z,23.37
2018-08-09T20:02:58.452Z,23.16
2018-08-09T20:05:28.050Z,23.18
2018-08-09T20:07:58.354Z,23.24
2018-08-09T20:10:27.825Z,23.19
2018-08-09T20:12:57.114Z,23.10
2018-08-09T20:15:26.555Z,23.09
2018-08-09T20:17:57.092Z,23.09
2018-08-09T20:20:26.778Z,23.13
2018-08-09T20:22:55.874Z,23.08
2018-08-09T20:25:40.118Z,22.88
2018-08-09T20:28:09.101Z,22.76
2018-08-09T20:30:38.164Z,22.58
2018-08-09T20:33:07.266Z,22.41
2018-08-09T20:35:36.521Z,22.48
2018-08-09T20:38:05.317Z,22.61
2018-08-09T20:40:34.014Z,22.54
2018-08-09T20:43:02.693Z,22.27
2018-08-09T20:45:31.487Z,22.55
2018-08-09T20:48:00.273Z,22.59
2018-08-09T20:50:29.308Z,22.42
2018-08-09T20:52:58.107Z,22.20
2018-08-09T20:55:26.757Z,22.21
2018-08-09T20:57:56.117Z,22.35
2018-08-09T21:00:28.245Z,22.39
2018-08-09T21:02:58.025Z,22.20
2018-08-09T21:05:30.344Z,21.92
2018-08-09T21:07:59.123Z,22.03
2018-08-09T21:10:27.870Z,22.15
2018-08-09T21:12:56.592Z,21.87
2018-08-09T21:15:25.187Z,21.81
2018-08-09T21:17:53.602Z,21.91
2018-08-09T21:20:22.436Z,21.83
2018-08-09T21:22:51.384Z,21.66
2018-08-09T21:25:20.235Z,21.59
2018-08-09T21:27:49.343Z,21.64
2018-08-09T21:30:20.074Z,21.58
2018-08-09T21:32:49.122Z,21.58
2018-08-09T21:35:17.659Z,21.54
2018-08-09T21:37:46.567Z,21.46
2018-08-09T21:40:15.727Z,21.55
2018-08-09T21:42:44.195Z,21.41
2018-08-09T21:45:15.604Z,21.52
2018-08-09T21:47:44.039Z,21.36
2018-08-09T21:50:16.031Z,21.26
2018-08-09T21:52:44.467Z,21.47
2018-08-09T21:55:13.399Z,21.32
2018-08-09T21:57:43.040Z,21.37
2018-08-09T22:00:50.104Z,21.67
2018-08-09T22:03:21.073Z,21.60
2018-08-09T22:05:54.801Z,21.64
2018-08-09T22:08:28.568Z,21.46
2018-08-09T22:11:02.931Z,21.23
2018-08-09T22:13:36.775Z,21.14
2018-08-09T22:16:11.171Z,21.48
2018-08-09T22:18:45.478Z,21.32
2018-08-09T22:21:19.306Z,21.36
2018-08-09T22:23:48.280Z,21.35
2018-08-09T22:26:16.853Z,21.10
2018-08-09T22:28:45.855Z,21.08
2018-08-09T22:31:15.048Z,21.21
2018-08-09T22:33:43.627Z,21.37
2018-08-09T22:36:12.118Z,20.97
2018-08-09T22:38:40.611Z,20.99
2018-08-09T22:41:09.054Z,21.04
2018-08-09T22:43:37.583Z,21.22
2018-08-09T22:46:06.359Z,20.95
2018-08-09T22:48:34.803Z,20.98
2018-08-09T22:51:03.309Z,20.90
2018-08-09T22:53:31.859Z,20.71
2018-08-09T22:56:00.303Z,20.82
2018-08-09T22:58:28.726Z,20.86
2018-08-09T23:00:57.473Z,20.93
2018-08-09T23:03:26.103Z,20.72
2018-08-09T23:05:54.555Z,20.88
2018-08-09T23:08:23.013Z,20.54
2018-08-09T23:10:51.575Z,20.76
2018-08-09T23:13:20.055Z,20.36
2018-08-09T23:15:48.703Z,20.45
2018-08-09T23:18:17.251Z,20.50
2018-08-09T23:20:45.751Z,20.26
2018-08-09T23:23:14.191Z,20.21
2018-08-09T23:25:42.700Z,20.12
2018-08-09T23:28:11.115Z,20.27
2018-08-09T23:30:39.956Z,20.26
2018-08-09T23:33:08.392Z,20.17
2018-08-09T23:35:36.939Z,20.13
2018-08-09T23:38:05.467Z,20.04
2018-08-09T23:40:33.931Z,20.17
2018-08-09T23:43:02.405Z,19.94
2018-08-09T23:45:30.935Z,19.86
2018-08-09T23:47:59.478Z,19.95
2018-08-09T23:50:27.878Z,19.67
2018-08-09T23:52:56.443Z,19.44
2018-08-09T23:55:24.999Z,19.35
2018-08-09T23:57:53.467Z,19.39
